createdAt,value
2023-05-22T00:00:55.537Z,22.4
2023-05-22T00:02:10.741Z,22.4
2023-05-22T00:03:26.786Z,22.4
2023-05-22T00:04:43.125Z,22.4
2023-05-22T00:05:59.177Z,22.4
2023-05-22T00:07:15.499Z,22.4
2023-05-22T00:08:31.689Z,22.3
2023-05-22T00:09:47.737Z,22.3
2023-05-22T00:11:03.923Z,22.3
2023-05-22T00:12:20.117Z,22.3
2023-05-22T00:13:36.294Z,22.3
2023-05-22T00:14:52.633Z,22.3
2023-05-22T00:16:08.671Z,22.3
2023-05-22T00:17:24.869Z,22.3
2023-05-22T00:18:40.206Z,22.3
2023-05-22T00:19:56.389Z,22.3
2023-05-22T00:21:12.435Z,22.3
2023-05-22T00:22:28.772Z,22.3
2023-05-22T00:23:44.966Z,22.3
2023-05-22T00:25:01.148Z,22.3
2023-05-22T00:26:17.326Z,22.3
2023-05-22T00:27:33.386Z,22.3
2023-05-22T00:28:49.558Z,22.3
2023-05-22T00:30:05.743Z,22.3
2023-05-22T00:31:22.079Z,22.3
2023-05-22T00:32:38.134Z,22.3
2023-05-22T00:33:54.448Z,22.3
2023-05-22T00:35:09.520Z,22.3
2023-05-22T00:36:25.838Z,22.3
2023-05-22T00:37:42.036Z,22.3
2023-05-22T00:38:58.214Z,22.3
2023-05-22T00:40:14.269Z,22.2
2023-05-22T00:41:30.461Z,22.2
2023-05-22T00:42:46.785Z,22.2
2023-05-22T00:44:02.830Z,22.2
2023-05-22T00:45:19.155Z,22.2
2023-05-22T00:46:35.347Z,22.2
2023-05-22T00:47:51.382Z,22.2
2023-05-22T00:49:07.722Z,22.2
2023-05-22T00:50:23.907Z,22.2
2023-05-22T00:51:38.953Z,22.2
2023-05-22T00:52:55.296Z,22.2
2023-05-22T00:54:11.345Z,22.2
2023-05-22T00:55:27.530Z,22.2
2023-05-22T00:56:43.862Z,22.2
2023-05-22T00:57:59.895Z,22.2
2023-05-22T00:59:16.095Z,22.2
2023-05-22T01:00:32.281Z,22.2
2023-05-22T01:01:48.604Z,22.2
2023-05-22T01:03:04.794Z,22.2
2023-05-22T01:04:20.972Z,22.2
2023-05-22T01:05:37.172Z,22.2
2023-05-22T01:06:53.351Z,22.2
2023-05-22T01:08:08.403Z,22.2
2023-05-22T01:09:24.743Z,22.2
2023-05-22T01:10:40.774Z,22.2
2023-05-22T01:11:57.125Z,22.2
2023-05-22T01:13:13.153Z,22.2
2023-05-22T01:14:29.337Z,22.2
2023-05-22T01:15:45.681Z,22.2
2023-05-22T01:17:01.875Z,22.2
2023-05-22T01:18:18.052Z,22.1
2023-05-22T01:19:34.098Z,22.1
2023-05-22T01:20:50.270Z,22.2
2023-05-22T01:22:06.472Z,22.1
2023-05-22T01:23:22.663Z,22.1
2023-05-22T01:24:38.018Z,22.1
2023-05-22T01:25:54.033Z,22.1
2023-05-22T01:27:10.223Z,22.1
2023-05-22T01:28:26.561Z,22.1
2023-05-22T01:29:42.593Z,22.1
2023-05-22T01:30:58.934Z,22.1
2023-05-22T01:32:15.124Z,22.1
2023-05-22T01:33:31.170Z,22.1
2023-05-22T01:34:47.507Z,22.1
2023-05-22T01:36:03.548Z,22.1
2023-05-22T01:37:19.731Z,22.1
2023-05-22T01:38:35.904Z,22.1
2023-05-22T01:39:52.094Z,22.1
2023-05-22T01:41:07.465Z,22.1
2023-05-22T01:42:23.649Z,22.1
2023-05-22T01:43:39.839Z,22.1
2023-05-22T01:44:55.873Z,22.1
2023-05-22T01:46:12.044Z,22.1
2023-05-22T01:47:28.242Z,22.1
2023-05-22T01:48:44.575Z,22.1
2023-05-22T01:50:00.763Z,22.1
2023-05-22T01:51:16.799Z,22.1
2023-05-22T01:52:32.975Z,22.1
2023-05-22T01:53:49.331Z,22.1
2023-05-22T01:55:05.351Z,22.1
2023-05-22T01:56:21.711Z,22.1
2023-05-22T01:57:36.739Z,22.1
2023-05-22T01:58:52.935Z,22
2023-05-22T02:00:09.127Z,22
2023-05-22T02:01:25.299Z,22
2023-05-22T02:02:41.650Z,22
2023-05-22T02:03:57.693Z,22
2023-05-22T02:05:14.031Z,22
2023-05-22T02:06:30.226Z,22
2023-05-22T02:07:46.247Z,22
2023-05-22T02:09:02.431Z,22
2023-05-22T02:10:18.773Z,22
2023-05-22T02:11:34.970Z,22
2023-05-22T02:12:51.149Z,22
2023-05-22T02:14:06.204Z,22
2023-05-22T02:15:22.387Z,22
2023-05-22T02:16:38.576Z,22
2023-05-22T02:17:54.935Z,22
2023-05-22T02:19:11.109Z,22
2023-05-22T02:20:27.126Z,22
2023-05-22T02:21:43.469Z,22
2023-05-22T02:22:59.505Z,22
2023-05-22T02:24:15.679Z,22
2023-05-22T02:25:32.042Z,22
2023-05-22T02:26:48.063Z,22
2023-05-22T02:28:04.257Z,22
2023-05-22T02:29:20.443Z,22
2023-05-22T02:30:35.643Z,22
2023-05-22T02:31:51.000Z,21.9
2023-05-22T02:33:08.177Z,22
2023-05-22T02:34:24.365Z,22
2023-05-22T02:35:40.554Z,21.9
2023-05-22T02:36:56.581Z,21.9
2023-05-22T02:38:12.756Z,21.9
2023-05-22T02:39:29.118Z,21.9
2023-05-22T02:40:45.300Z,21.9
2023-05-22T02:42:01.323Z,21.9
2023-05-22T02:43:17.672Z,21.9
2023-05-22T02:44:33.859Z,21.9
2023-05-22T02:45:49.884Z,21.9
2023-05-22T02:47:05.252Z,21.9
2023-05-22T02:48:21.432Z,21.9
2023-05-22T02:49:37.456Z,21.9
2023-05-22T02:50:53.655Z,21.9
2023-05-22T02:52:10.005Z,21.9
2023-05-22T02:53:26.021Z,21.9
2023-05-22T02:54:42.203Z,21.9
2023-05-22T02:55:58.573Z,21.9
2023-05-22T02:57:14.758Z,21.9
2023-05-22T02:58:30.945Z,21.9
2023-05-22T02:59:47.130Z,21.9
2023-05-22T03:01:03.147Z,21.9
2023-05-22T03:02:19.323Z,21.9
2023-05-22T03:03:34.701Z,21.9
2023-05-22T03:04:50.890Z,21.9
2023-05-22T03:06:06.919Z,21.9
2023-05-22T03:07:23.096Z,21.9
2023-05-22T03:08:39.291Z,21.9
2023-05-22T03:09:55.641Z,21.9
2023-05-22T03:11:11.648Z,21.9
2023-05-22T03:12:28.017Z,21.9
2023-05-22T03:13:44.028Z,21.9
2023-05-22T03:15:00.206Z,21.9
2023-05-22T03:16:16.393Z,21.9
2023-05-22T03:17:32.756Z,21.9
2023-05-22T03:18:48.944Z,21.9
2023-05-22T03:20:03.972Z,21.9
2023-05-22T03:21:20.347Z,21.9
2023-05-22T03:22:36.532Z,21.9
2023-05-22T03:23:52.540Z,21.9
2023-05-22T03:25:08.907Z,21.9
2023-05-22T03:26:25.088Z,21.9
2023-05-22T03:27:40.124Z,21.9
2023-05-22T03:28:56.488Z,21.9
2023-05-22T03:30:12.677Z,21.9
2023-05-22T03:31:28.681Z,21.9
2023-05-22T03:32:44.864Z,21.8
2023-05-22T03:34:01.240Z,21.9
2023-05-22T03:35:17.426Z,21.9
2023-05-22T03:36:33.438Z,21.9
2023-05-22T03:37:49.789Z,21.9
2023-05-22T03:39:05.810Z,21.8
2023-05-22T03:40:21.982Z,21.8
2023-05-22T03:41:38.352Z,21.8
2023-05-22T03:42:54.545Z,21.8
2023-05-22T03:44:09.756Z,21.8
2023-05-22T03:45:25.757Z,21.9
2023-05-22T03:46:41.937Z,21.8
2023-05-22T03:47:58.306Z,21.9
2023-05-22T03:49:14.489Z,21.9
2023-05-22T03:50:30.674Z,21.8
2023-05-22T03:51:46.683Z,21.9
2023-05-22T03:53:02.869Z,21.9
2023-05-22T03:54:19.058Z,21.9
2023-05-22T03:55:35.434Z,21.9
2023-05-22T03:56:51.624Z,21.9
2023-05-22T03:58:07.627Z,21.9
2023-05-22T03:59:23.818Z,21.9
2023-05-22T04:00:39.022Z,21.9
2023-05-22T04:01:55.204Z,21.9
2023-05-22T04:03:11.567Z,21.9
2023-05-22T04:04:27.753Z,21.9
2023-05-22T04:05:43.940Z,21.9
2023-05-22T04:07:00.128Z,21.9
2023-05-22T04:08:16.322Z,21.9
2023-05-22T04:09:32.324Z,21.9
2023-05-22T04:10:48.510Z,21.9
2023-05-22T04:12:04.874Z,21.9
2023-05-22T04:13:21.076Z,21.9
2023-05-22T04:14:37.251Z,21.9
2023-05-22T04:15:53.449Z,21.9
2023-05-22T04:17:08.456Z,21.9
2023-05-22T04:18:24.644Z,21.9
2023-05-22T04:19:41.011Z,21.9
2023-05-22T04:20:57.203Z,21.9
2023-05-22T04:22:13.212Z,21.9
2023-05-22T04:23:29.398Z,21.9
2023-05-22T04:24:45.581Z,21.9
2023-05-22T04:26:01.958Z,21.9
2023-05-22T04:27:18.140Z,21.9
2023-05-22T04:28:34.329Z,21.9
2023-05-22T04:29:50.533Z,21.9
2023-05-22T04:31:06.705Z,21.9
2023-05-22T04:32:22.698Z,21.9
2023-05-22T04:33:38.094Z,21.9
2023-05-22T04:34:54.292Z,21.9
2023-05-22T04:36:10.271Z,21.9
2023-05-22T04:37:26.654Z,21.9
2023-05-22T04:38:42.843Z,21.9
2023-05-22T04:39:59.022Z,21.9
2023-05-22T04:41:15.218Z,21.9
2023-05-22T04:42:31.206Z,21.9
2023-05-22T04:43:47.409Z,21.9
2023-05-22T04:45:03.790Z,22
2023-05-22T04:46:19.767Z,21.9
2023-05-22T04:47:35.950Z,21.9
2023-05-22T04:48:52.151Z,22
2023-05-22T04:50:07.543Z,22
2023-05-22T04:51:23.544Z,22
2023-05-22T04:52:39.915Z,22
2023-05-22T04:53:56.105Z,22
2023-05-22T04:55:12.099Z,22
2023-05-22T04:56:28.474Z,22
2023-05-22T04:57:44.660Z,22
2023-05-22T04:59:00.657Z,22
2023-05-22T05:00:17.045Z,22
2023-05-22T05:01:33.022Z,22
2023-05-22T05:02:49.226Z,22
2023-05-22T05:04:05.604Z,22
2023-05-22T05:05:21.782Z,22
2023-05-22T05:06:36.989Z,22
2023-05-22T05:07:53.171Z,22
2023-05-22T05:09:09.178Z,22
2023-05-22T05:10:25.367Z,22
2023-05-22T05:11:41.541Z,22
2023-05-22T05:12:57.730Z,22
2023-05-22T05:14:13.922Z,22
2023-05-22T05:15:30.298Z,22
2023-05-22T05:16:46.497Z,22
2023-05-22T05:18:02.479Z,22
2023-05-22T05:19:18.659Z,22
2023-05-22T05:20:34.852Z,22
2023-05-22T05:21:51.237Z,22
2023-05-22T05:23:07.429Z,22
2023-05-22T05:24:22.635Z,22
2023-05-22T05:25:38.621Z,22
2023-05-22T05:26:54.808Z,22
2023-05-22T05:28:10.999Z,22
2023-05-22T05:29:27.381Z,22
2023-05-22T05:30:43.563Z,22.1
2023-05-22T05:31:59.547Z,22
2023-05-22T05:33:15.748Z,22.1
2023-05-22T05:34:32.119Z,22.1
2023-05-22T05:35:48.319Z,22.1
2023-05-22T05:37:04.510Z,22.1
2023-05-22T05:38:20.688Z,22.1
2023-05-22T05:39:36.666Z,22.1
2023-05-22T05:40:51.869Z,22.1
2023-05-22T05:42:08.267Z,22
2023-05-22T05:43:24.459Z,22
2023-05-22T05:44:40.445Z,22
2023-05-22T05:45:56.627Z,22.1
2023-05-22T05:47:12.818Z,22
2023-05-22T05:48:28.993Z,22
2023-05-22T05:49:45.175Z,22
2023-05-22T05:51:01.373Z,22
2023-05-22T05:52:17.566Z,22
2023-05-22T05:53:33.960Z,22.1
2023-05-22T05:54:49.934Z,22.1
2023-05-22T05:56:06.121Z,22.1
2023-05-22T05:57:21.314Z,22.1
2023-05-22T05:58:37.712Z,22.1
2023-05-22T05:59:53.696Z,22.1
2023-05-22T06:01:10.093Z,22.1
2023-05-22T06:02:26.061Z,22.1
2023-05-22T06:03:42.247Z,22.1
2023-05-22T06:04:58.437Z,22.1
2023-05-22T06:06:14.834Z,22.1
2023-05-22T06:07:31.016Z,22.2
2023-05-22T06:08:47.220Z,22.2
2023-05-22T06:10:03.400Z,22.2
2023-05-22T06:11:19.371Z,22.2
2023-05-22T06:12:35.561Z,22.2
2023-05-22T06:13:50.966Z,22.2
2023-05-22T06:15:06.952Z,22.2
2023-05-22T06:16:23.357Z,22.2
2023-05-22T06:17:39.317Z,22.2
2023-05-22T06:18:55.523Z,22.2
2023-05-22T06:20:11.710Z,22.2
2023-05-22T06:21:28.104Z,22.2
2023-05-22T06:22:44.293Z,22.2
2023-05-22T06:24:00.477Z,22.2
2023-05-22T06:25:16.650Z,22.2
2023-05-22T06:26:32.642Z,22.3
2023-05-22T06:27:48.829Z,22.2
2023-05-22T06:29:05.222Z,22.3
2023-05-22T06:30:20.220Z,22.3
2023-05-22T06:31:36.617Z,22.3
2023-05-22T06:32:52.592Z,22.3
2023-05-22T06:34:08.763Z,22.3
2023-05-22T06:35:25.167Z,22.3
2023-05-22T06:36:41.369Z,22.3
2023-05-22T06:37:57.328Z,22.3
2023-05-22T06:39:13.516Z,22.4
2023-05-22T06:40:29.707Z,22.4
2023-05-22T06:41:45.902Z,22.4
2023-05-22T06:43:02.086Z,22.4
2023-05-22T06:44:18.487Z,22.4
2023-05-22T06:45:34.449Z,22.4
2023-05-22T06:46:49.879Z,22.4
2023-05-22T06:48:06.053Z,22.4
2023-05-22T06:49:22.043Z,22.4
2023-05-22T06:50:38.227Z,22.5
2023-05-22T06:51:54.401Z,22.5
2023-05-22T06:53:10.820Z,22.5
2023-05-22T06:54:26.778Z,22.5
2023-05-22T06:55:42.965Z,22.5
2023-05-22T06:56:59.153Z,22.5
2023-05-22T06:58:15.561Z,22.5
2023-05-22T06:59:31.532Z,22.5
2023-05-22T07:00:47.934Z,22.5
2023-05-22T07:02:04.113Z,22.5
2023-05-22T07:03:19.111Z,22.5
2023-05-22T07:04:35.298Z,22.5
2023-05-22T07:05:51.476Z,22.5
2023-05-22T07:07:07.888Z,22.5
2023-05-22T07:08:23.848Z,22.6
2023-05-22T07:09:40.269Z,22.6
2023-05-22T07:10:56.443Z,22.6
2023-05-22T07:12:12.420Z,22.6
2023-05-22T07:13:28.817Z,22.6
2023-05-22T07:14:45.014Z,22.6
2023-05-22T07:16:00.976Z,22.6
2023-05-22T07:17:17.392Z,22.6
2023-05-22T07:18:33.342Z,22.6
2023-05-22T07:19:48.559Z,22.6
2023-05-22T07:21:04.748Z,22.6
2023-05-22T07:22:20.928Z,22.6
2023-05-22T07:23:37.108Z,22.6
2023-05-22T07:24:53.528Z,22.6
2023-05-22T07:26:09.706Z,22.6
2023-05-22T07:27:25.663Z,22.6
2023-05-22T07:28:41.861Z,22.6
2023-05-22T07:29:58.281Z,22.6
2023-05-22T07:31:14.463Z,22.6
2023-05-22T07:32:30.418Z,22.6
2023-05-22T07:33:46.600Z,22.6
2023-05-22T07:35:03.027Z,22.6
2023-05-22T07:36:19.334Z,22.6
2023-05-22T07:37:35.294Z,22.6
2023-05-22T07:38:51.712Z,22.6
2023-05-22T07:40:07.663Z,22.6
2023-05-22T07:41:24.087Z,22.6
2023-05-22T07:42:39.056Z,22.6
2023-05-22T07:43:55.245Z,22.6
2023-05-22T07:45:11.658Z,22.6
2023-05-22T07:46:27.619Z,22.6
2023-05-22T07:47:43.808Z,22.6
2023-05-22T07:49:00.214Z,22.6
2023-05-22T07:51:32.604Z,22.6
2023-05-22T07:52:48.791Z,22.6
2023-05-22T07:54:04.743Z,22.7
2023-05-22T07:55:20.938Z,22.7
2023-05-22T07:56:37.112Z,22.7
2023-05-22T07:57:53.307Z,22.7
2023-05-22T07:59:08.505Z,22.7
2023-05-22T08:00:24.706Z,22.7
2023-05-22T08:01:41.107Z,22.7
2023-05-22T08:02:57.287Z,22.7
2023-05-22T08:04:13.474Z,22.7
2023-05-22T08:05:29.446Z,22.7
2023-05-22T08:06:45.632Z,22.8
2023-05-22T08:08:02.041Z,22.8
2023-05-22T08:09:17.995Z,22.8
2023-05-22T08:10:34.419Z,22.8
2023-05-22T08:11:50.374Z,22.8
2023-05-22T08:13:06.556Z,22.8
2023-05-22T08:14:22.973Z,22.8
2023-05-22T08:15:37.945Z,22.8
2023-05-22T08:16:54.143Z,22.8
2023-05-22T08:18:10.568Z,22.8
2023-05-22T08:19:26.518Z,22.8
2023-05-22T08:20:42.691Z,22.8
2023-05-22T08:21:58.885Z,22.8
2023-05-22T08:23:15.064Z,22.8
2023-05-22T08:24:31.265Z,22.9
2023-05-22T08:25:47.451Z,22.9
2023-05-22T08:27:03.631Z,22.9
2023-05-22T08:28:20.063Z,22.9
2023-05-22T08:29:36.008Z,22.9
2023-05-22T08:30:52.430Z,22.9
2023-05-22T08:32:07.393Z,22.9
2023-05-22T08:33:23.812Z,22.9
2023-05-22T08:34:39.774Z,22.9
2023-05-22T08:35:55.956Z,23
2023-05-22T08:37:12.153Z,23
2023-05-22T08:38:28.567Z,23
2023-05-22T08:39:44.524Z,23
2023-05-22T08:41:00.709Z,23
2023-05-22T08:42:17.123Z,23
2023-05-22T08:43:33.087Z,23
2023-05-22T08:44:49.262Z,23
2023-05-22T08:46:05.694Z,23
2023-05-22T08:47:21.652Z,23
2023-05-22T08:48:37.089Z,23
2023-05-22T08:49:53.031Z,23
2023-05-22T08:51:09.209Z,23
2023-05-22T08:52:25.404Z,23
2023-05-22T08:53:41.594Z,23
2023-05-22T08:54:58.022Z,23
2023-05-22T08:56:14.213Z,23
2023-05-22T08:57:30.153Z,23
2023-05-22T08:58:46.332Z,23
2023-05-22T09:00:02.531Z,23
2023-05-22T09:01:18.722Z,23
2023-05-22T09:02:35.143Z,23
2023-05-22T09:03:51.089Z,23.1
2023-05-22T09:05:06.544Z,23.1
2023-05-22T09:06:22.471Z,23.1
2023-05-22T09:07:38.913Z,23.1
2023-05-22T09:08:54.846Z,23.2
2023-05-22T09:10:11.047Z,23.2
2023-05-22T09:11:27.471Z,23.2
2023-05-22T09:12:43.667Z,23.2
2023-05-22T09:13:59.597Z,23.2
2023-05-22T09:15:15.783Z,23.2
2023-05-22T09:16:32.216Z,23.2
2023-05-22T09:17:48.414Z,23.2
2023-05-22T09:19:04.596Z,23.2
2023-05-22T09:20:20.771Z,23.2
2023-05-22T09:21:35.738Z,23.2
2023-05-22T09:22:52.166Z,23.2
2023-05-22T09:24:08.365Z,23.2
2023-05-22T09:25:24.554Z,23.2
2023-05-22T09:26:40.480Z,23.3
2023-05-22T09:27:56.676Z,23.3
2023-05-22T09:29:12.864Z,23.3
2023-05-22T09:30:29.043Z,23.3
2023-05-22T09:31:45.486Z,23.4
2023-05-22T09:33:01.666Z,23.4
2023-05-22T09:34:17.867Z,23.4
2023-05-22T09:35:34.051Z,23.4
2023-05-22T09:36:49.980Z,23.4
2023-05-22T09:38:05.427Z,23.4
2023-05-22T09:39:21.626Z,23.4
2023-05-22T09:40:37.555Z,23.4
2023-05-22T09:41:53.993Z,23.4
2023-05-22T09:43:10.178Z,23.4
2023-05-22T09:44:26.114Z,23.4
2023-05-22T09:45:42.554Z,23.4
2023-05-22T09:46:58.740Z,23.4
2023-05-22T09:48:14.682Z,23.4
2023-05-22T09:49:31.115Z,23.4
2023-05-22T09:50:47.064Z,23.4
2023-05-22T09:52:03.232Z,23.4
2023-05-22T09:53:19.424Z,23.4
2023-05-22T09:54:34.625Z,23.4
2023-05-22T09:55:51.075Z,23.5
2023-05-22T09:57:07.014Z,23.5
2023-05-22T09:58:23.444Z,23.5
2023-05-22T09:59:39.392Z,23.5
2023-05-22T10:00:55.586Z,23.5
2023-05-22T10:02:11.761Z,23.5
2023-05-22T10:03:27.952Z,23.5
2023-05-22T10:04:44.392Z,23.5
2023-05-22T10:07:16.519Z,23.6
2023-05-22T10:08:32.956Z,23.6
2023-05-22T10:09:49.156Z,23.6
2023-05-22T10:11:04.348Z,23.7
2023-05-22T10:12:20.540Z,23.7
2023-05-22T10:13:36.473Z,23.6
2023-05-22T10:14:52.671Z,23.7
2023-05-22T10:16:08.861Z,23.7
2023-05-22T10:17:25.297Z,23.7
2023-05-22T10:18:41.243Z,23.7
2023-05-22T10:19:57.670Z,23.7
2023-05-22T10:21:13.859Z,23.7
2023-05-22T10:22:30.049Z,23.7
2023-05-22T10:23:46.236Z,23.7
2023-05-22T10:25:02.438Z,23.7
2023-05-22T10:26:18.360Z,23.7
2023-05-22T10:27:33.557Z,23.7
2023-05-22T10:28:49.748Z,23.7
2023-05-22T10:30:05.936Z,23.8
2023-05-22T10:31:22.136Z,23.8
2023-05-22T10:32:38.330Z,23.8
2023-05-22T10:33:54.766Z,23.8
2023-05-22T10:35:10.966Z,23.8
2023-05-22T10:36:27.151Z,23.7
2023-05-22T10:37:43.073Z,23.7
2023-05-22T10:38:59.265Z,23.8
2023-05-22T10:40:15.708Z,23.8
2023-05-22T10:41:31.646Z,23.8
2023-05-22T10:42:47.836Z,23.8
2023-05-22T10:44:03.024Z,23.8
2023-05-22T10:45:19.217Z,23.8
2023-05-22T10:46:35.672Z,23.8
2023-05-22T10:47:51.607Z,23.9
2023-05-22T10:49:07.789Z,23.9
2023-05-22T10:50:24.246Z,23.9
2023-05-22T10:51:40.160Z,23.9
2023-05-22T10:52:56.357Z,23.9
2023-05-22T10:54:12.811Z,23.9
2023-05-22T10:55:29.003Z,23.9
2023-05-22T10:56:44.924Z,23.9
2023-05-22T10:58:01.369Z,23.9
2023-05-22T10:59:17.560Z,23.9
2023-05-22T11:00:32.505Z,23.9
2023-05-22T11:01:48.965Z,23.9
2023-05-22T11:03:05.158Z,23.9
2023-05-22T11:04:21.076Z,24
2023-05-22T11:05:37.256Z,24
2023-05-22T11:06:53.449Z,24
2023-05-22T11:08:09.635Z,24
2023-05-22T11:09:25.837Z,24
2023-05-22T11:10:42.286Z,24
2023-05-22T11:11:58.482Z,24
2023-05-22T11:13:14.395Z,24.1
2023-05-22T11:14:30.849Z,24.1
2023-05-22T11:15:46.771Z,24.1
2023-05-22T11:17:01.967Z,24.1
2023-05-22T11:18:18.424Z,24.1
2023-05-22T11:19:34.342Z,24.1
2023-05-22T11:20:50.805Z,24.1
2023-05-22T11:22:06.721Z,24.1
2023-05-22T11:23:22.923Z,24.1
2023-05-22T11:24:39.378Z,24.1
2023-05-22T11:25:55.564Z,24.1
2023-05-22T11:27:11.749Z,24.1
2023-05-22T11:28:27.951Z,24.1
2023-05-22T11:29:43.860Z,24.2
2023-05-22T11:31:00.329Z,24.2
2023-05-22T11:32:16.236Z,24.2
2023-05-22T11:33:31.446Z,24.2
2023-05-22T11:34:47.627Z,24.3
2023-05-22T11:36:03.818Z,24.3
2023-05-22T11:37:20.279Z,24.4
2023-05-22T11:38:36.195Z,24.3
2023-05-22T11:39:52.667Z,24.4
2023-05-22T11:41:08.583Z,24.5
2023-05-22T11:42:24.768Z,24.6
2023-05-22T11:43:41.220Z,24.7
2023-05-22T11:44:57.417Z,24.7
2023-05-22T11:46:13.614Z,24.7
2023-05-22T11:47:29.795Z,24.8
2023-05-22T11:48:45.978Z,24.8
2023-05-22T11:50:01.185Z,24.8
2023-05-22T11:51:17.386Z,24.8
2023-05-22T11:52:33.566Z,24.8
2023-05-22T11:53:49.746Z,24.8
2023-05-22T11:55:05.940Z,24.8
2023-05-22T11:56:22.142Z,24.8
2023-05-22T11:57:37.350Z,24.8
2023-05-22T11:58:53.523Z,24.7
2023-05-22T12:00:09.728Z,24.7
2023-05-22T12:01:25.911Z,24.7
2023-05-22T12:02:42.107Z,24.7
2023-05-22T12:03:58.286Z,24.8
2023-05-22T12:05:14.473Z,24.8
2023-05-22T12:06:30.668Z,24.8
2023-05-22T12:07:46.844Z,24.8
2023-05-22T12:09:03.043Z,24.8
2023-05-22T12:10:19.241Z,24.8
2023-05-22T12:11:35.413Z,24.9
2023-05-22T12:12:51.600Z,25
2023-05-22T12:14:06.811Z,25.2
2023-05-22T12:15:22.999Z,25.4
2023-05-22T12:16:39.198Z,25.5
2023-05-22T12:17:55.390Z,25.9
2023-05-22T12:19:11.571Z,26.1
2023-05-22T12:20:27.762Z,26.3
2023-05-22T12:21:43.957Z,26.4
2023-05-22T12:23:00.143Z,26.4
2023-05-22T12:24:16.319Z,26.5
2023-05-22T12:25:32.508Z,26.5
2023-05-22T12:26:48.705Z,26.3
2023-05-22T12:28:04.884Z,26.1
2023-05-22T12:29:21.071Z,26.1
2023-05-22T12:30:36.293Z,26
2023-05-22T12:31:52.467Z,25.8
2023-05-22T12:33:08.657Z,25.7
2023-05-22T12:34:24.869Z,25.7
2023-05-22T12:35:41.045Z,25.7
2023-05-22T12:36:57.251Z,25.8
2023-05-22T12:38:13.422Z,25.8
2023-05-22T12:39:29.601Z,25.7
2023-05-22T12:40:45.802Z,25.6
2023-05-22T12:42:02.009Z,25.6
2023-05-22T12:43:18.191Z,25.6
2023-05-22T12:44:34.372Z,25.8
2023-05-22T12:45:50.558Z,26
2023-05-22T12:47:05.762Z,26.4
2023-05-22T12:48:21.961Z,26.8
2023-05-22T12:49:38.151Z,27.1
2023-05-22T12:50:54.315Z,27.3
2023-05-22T12:52:10.523Z,27.4
2023-05-22T12:53:26.696Z,27.6
2023-05-22T12:54:42.886Z,27.7
2023-05-22T12:55:59.088Z,27.8
2023-05-22T12:57:15.285Z,27.8
2023-05-22T12:58:31.457Z,27.8
2023-05-22T12:59:47.654Z,27.8
2023-05-22T13:01:03.826Z,27.9
2023-05-22T13:02:20.020Z,27.9
2023-05-22T13:03:35.229Z,27.9
2023-05-22T13:04:51.438Z,27.9
2023-05-22T13:06:07.597Z,28
2023-05-22T13:07:23.798Z,28.1
2023-05-22T13:08:40.000Z,28.1
2023-05-22T13:09:56.188Z,28.1
2023-05-22T13:11:12.362Z,28
2023-05-22T13:12:28.559Z,28.1
2023-05-22T13:13:44.738Z,28.2
2023-05-22T13:15:00.951Z,28.1
2023-05-22T13:16:17.108Z,28.2
2023-05-22T13:17:33.297Z,28.3
2023-05-22T13:18:49.516Z,28.4
2023-05-22T13:20:04.696Z,28.4
2023-05-22T13:21:20.894Z,28.5
2023-05-22T13:22:37.101Z,28.6
2023-05-22T13:23:53.274Z,28.7
2023-05-22T13:25:09.457Z,28.8
2023-05-22T13:26:25.648Z,28.9
2023-05-22T13:27:41.868Z,28.9
2023-05-22T13:28:58.030Z,28.9
2023-05-22T13:30:14.206Z,28.9
2023-05-22T13:31:30.424Z,28.9
2023-05-22T13:32:46.597Z,28.9
2023-05-22T13:34:02.773Z,28.7
2023-05-22T13:35:18.994Z,28.7
2023-05-22T13:36:34.168Z,28.7
2023-05-22T13:37:50.365Z,28.8
2023-05-22T13:39:06.552Z,28.7
2023-05-22T13:40:22.745Z,28.7
2023-05-22T13:41:38.930Z,28.8
2023-05-22T13:42:55.142Z,28.9
2023-05-22T13:44:11.327Z,29.1
2023-05-22T13:45:27.506Z,29.2
2023-05-22T13:46:43.705Z,29.3
2023-05-22T13:47:59.872Z,29.4
2023-05-22T13:49:16.058Z,29.5
2023-05-22T13:50:32.270Z,29.6
2023-05-22T13:51:48.436Z,29.6
2023-05-22T13:53:03.663Z,29.6
2023-05-22T13:55:36.028Z,29.6
2023-05-22T13:56:52.237Z,29.7
2023-05-22T13:58:08.425Z,29.6
2023-05-22T13:59:24.628Z,29.7
2023-05-22T14:00:40.819Z,29.7
2023-05-22T14:01:56.967Z,29.6
2023-05-22T14:03:13.150Z,29.7
2023-05-22T14:04:29.343Z,29.7
2023-05-22T14:05:45.568Z,29.7
2023-05-22T14:07:01.716Z,29.6
2023-05-22T14:08:17.942Z,29.6
2023-05-22T14:09:33.120Z,29.6
2023-05-22T14:10:49.333Z,29.7
2023-05-22T14:12:05.530Z,29.7
2023-05-22T14:13:21.713Z,29.8
2023-05-22T14:14:37.869Z,29.8
2023-05-22T14:15:54.072Z,29.8
2023-05-22T14:17:10.277Z,29.6
2023-05-22T14:18:26.434Z,29.6
2023-05-22T14:19:42.631Z,29.4
2023-05-22T14:20:58.859Z,29
2023-05-22T14:22:14.998Z,28.9
2023-05-22T14:23:31.221Z,29
2023-05-22T14:24:47.418Z,29
2023-05-22T14:26:02.590Z,29.1
2023-05-22T14:27:18.784Z,29.3
2023-05-22T14:28:34.998Z,29.5
2023-05-22T14:29:51.154Z,29.6
2023-05-22T14:31:07.385Z,29.7
2023-05-22T14:32:23.543Z,29.7
2023-05-22T14:33:39.732Z,29.7
2023-05-22T14:34:55.939Z,29.7
2023-05-22T14:36:12.129Z,29.8
2023-05-22T14:37:28.326Z,29.8
2023-05-22T14:38:44.523Z,29.9
2023-05-22T14:40:00.664Z,30
2023-05-22T14:41:16.868Z,30
2023-05-22T14:42:32.063Z,30.1
2023-05-22T14:43:48.286Z,30
2023-05-22T14:45:04.438Z,30.1
2023-05-22T14:46:20.636Z,30.1
2023-05-22T14:47:36.856Z,30
2023-05-22T14:48:53.001Z,29.9
2023-05-22T14:50:09.236Z,29.8
2023-05-22T14:51:25.422Z,29.7
2023-05-22T14:52:41.565Z,29.7
2023-05-22T14:53:57.805Z,29.7
2023-05-22T14:55:13.950Z,29.7
2023-05-22T14:56:30.177Z,29.7
2023-05-22T14:57:46.319Z,29.8
2023-05-22T14:59:01.528Z,29.7
2023-05-22T15:00:17.729Z,29.8
2023-05-22T15:01:33.958Z,29.8
2023-05-22T15:02:50.151Z,29.8
2023-05-22T15:04:06.286Z,29.8
2023-05-22T15:05:22.481Z,29.8
2023-05-22T15:06:38.676Z,29.8
2023-05-22T15:07:54.900Z,29.8
2023-05-22T15:09:11.094Z,29.8
2023-05-22T15:10:27.225Z,29.8
2023-05-22T15:11:43.425Z,29.8
2023-05-22T15:12:59.655Z,29.8
2023-05-22T15:14:15.856Z,29.8
2023-05-22T15:15:31.044Z,29.7
2023-05-22T15:16:47.199Z,29.6
2023-05-22T15:18:03.377Z,29.6
2023-05-22T15:19:19.569Z,29.6
2023-05-22T15:20:35.763Z,29.5
2023-05-22T15:21:51.989Z,29.5
2023-05-22T15:23:08.137Z,29.6
2023-05-22T15:24:24.382Z,29.5
2023-05-22T15:25:40.568Z,29.4
2023-05-22T15:26:56.705Z,29.3
2023-05-22T15:28:12.947Z,29.1
2023-05-22T15:29:29.078Z,29
2023-05-22T15:30:45.270Z,28.9
2023-05-22T15:32:00.518Z,29.1
2023-05-22T15:33:16.661Z,29.2
2023-05-22T15:34:32.850Z,29.3
2023-05-22T15:35:49.050Z,29.3
2023-05-22T15:37:05.287Z,29.3
2023-05-22T15:38:21.481Z,29.3
2023-05-22T15:39:37.655Z,29.3
2023-05-22T15:40:53.852Z,29.4
2023-05-22T15:42:09.980Z,29.4
2023-05-22T15:43:26.179Z,29.3
2023-05-22T15:44:42.423Z,29.3
2023-05-22T15:45:58.559Z,29.3
2023-05-22T15:47:14.787Z,29.3
2023-05-22T15:48:29.951Z,29.3
2023-05-22T15:49:46.135Z,29.2
2023-05-22T15:51:02.337Z,29.2
2023-05-22T15:52:18.575Z,29.3
2023-05-22T15:53:34.754Z,29.3
2023-05-22T15:54:50.942Z,29.3
2023-05-22T15:56:07.088Z,29.1
2023-05-22T15:57:23.267Z,28.8
2023-05-22T15:58:39.470Z,28.5
2023-05-22T15:59:55.651Z,28.2
2023-05-22T16:01:11.842Z,28
2023-05-22T16:02:28.075Z,27.7
2023-05-22T16:03:44.209Z,27.6
2023-05-22T16:04:59.418Z,27.3
2023-05-22T16:06:15.655Z,27.2
2023-05-22T16:07:31.863Z,27.2
2023-05-22T16:08:47.993Z,27.2
2023-05-22T16:10:04.230Z,27.2
2023-05-22T16:11:20.368Z,27
2023-05-22T16:12:35.585Z,26.9
2023-05-22T16:13:51.761Z,26.8
2023-05-22T16:15:08.010Z,26.8
2023-05-22T16:16:24.192Z,26.8
2023-05-22T16:17:40.380Z,26.7
2023-05-22T16:18:56.585Z,26.7
2023-05-22T16:20:12.773Z,26.7
2023-05-22T16:21:28.894Z,26.6
2023-05-22T16:22:45.138Z,26.6
2023-05-22T16:24:01.274Z,26.5
2023-05-22T16:25:17.460Z,26.5
2023-05-22T16:26:33.657Z,26.4
2023-05-22T16:27:49.851Z,26.4
2023-05-22T16:29:05.107Z,26.4
2023-05-22T16:30:21.299Z,26.3
2023-05-22T16:31:37.485Z,26.2
2023-05-22T16:32:53.681Z,26.2
2023-05-22T16:34:09.806Z,26.1
2023-05-22T16:35:26.041Z,26.1
2023-05-22T16:36:42.183Z,26.1
2023-05-22T16:37:58.425Z,26
2023-05-22T16:39:14.557Z,26
2023-05-22T16:40:30.806Z,26
2023-05-22T16:41:47.005Z,26
2023-05-22T16:43:03.121Z,26
2023-05-22T16:44:19.365Z,25.9
2023-05-22T16:45:34.584Z,25.9
2023-05-22T16:46:50.708Z,25.9
2023-05-22T16:48:06.966Z,25.9
2023-05-22T16:49:23.092Z,25.8
2023-05-22T16:50:39.275Z,25.8
2023-05-22T16:51:55.465Z,25.8
2023-05-22T16:53:11.719Z,25.8
2023-05-22T16:54:27.910Z,25.8
2023-05-22T16:55:44.083Z,25.7
2023-05-22T16:57:00.273Z,25.7
2023-05-22T16:58:16.413Z,25.7
2023-05-22T16:59:32.605Z,25.7
2023-05-22T17:00:48.772Z,25.7
2023-05-22T17:02:03.987Z,25.6
2023-05-22T17:03:20.168Z,25.6
2023-05-22T17:04:36.367Z,25.6
2023-05-22T17:05:52.560Z,25.6
2023-05-22T17:07:08.803Z,25.6